createdAt,value
2019-04-30T00:00:45.457Z,8.40
2019-04-30T00:03:25.636Z,8.30
2019-04-30T00:05:57.523Z,8.20
2019-04-30T00:08:30.074Z,8.10
2019-04-30T00:10:59.964Z,8.10
2019-04-30T00:13:30.193Z,8.10
2019-04-30T00:16:01.599Z,8.10
2019-04-30T00:18:37.927Z,8.00
2019-04-30T00:21:05.515Z,8.00
2019-04-30T00:23:36.043Z,8.10
2019-04-30T00:26:10.268Z,8.10
2019-04-30T00:28:39.461Z,8.10
2019-04-30T00:31:10.081Z,8.10
2019-04-30T00:33:40.508Z,8.10
2019-04-30T00:36:11.448Z,8.10
2019-04-30T00:38:41.625Z,8.10
2019-04-30T00:41:12.178Z,8.00
2019-04-30T00:43:48.022Z,8.10
2019-04-30T00:46:17.334Z,8.00
2019-04-30T00:48:46.449Z,8.00
2019-04-30T00:51:21.011Z,7.90
2019-04-30T00:53:51.308Z,7.90
2019-04-30T00:56:24.760Z,7.90
2019-04-30T00:58:52.559Z,7.90
2019-04-30T01:01:43.563Z,7.90
2019-04-30T01:04:19.554Z,7.80
2019-04-30T01:06:50.907Z,7.80
2019-04-30T01:09:21.283Z,7.90
2019-04-30T01:11:51.522Z,7.90
2019-04-30T01:14:23.182Z,7.80
2019-04-30T01:16:53.613Z,7.70
2019-04-30T01:19:29.993Z,7.70
2019-04-30T01:21:55.793Z,7.60
2019-04-30T01:24:28.401Z,7.40
2019-04-30T01:27:00.749Z,7.30
2019-04-30T01:29:38.237Z,7.20
2019-04-30T01:32:02.884Z,7.10
2019-04-30T01:34:33.145Z,7.10
2019-04-30T01:37:04.362Z,7.20
2019-04-30T01:39:35.104Z,7.10
2019-04-30T01:42:07.969Z,7.00
2019-04-30T01:44:39.104Z,6.90
2019-04-30T01:47:09.171Z,6.90
2019-04-30T01:49:42.818Z,6.90
2019-04-30T01:52:11.209Z,6.90
2019-04-30T01:54:41.395Z,6.90
2019-04-30T01:57:29.145Z,6.80
2019-04-30T02:00:05.992Z,6.50
2019-04-30T02:02:39.467Z,6.60
2019-04-30T02:05:11.196Z,6.70
2019-04-30T02:07:41.462Z,6.70
2019-04-30T02:10:11.792Z,6.60
2019-04-30T02:12:42.009Z,6.50
2019-04-30T02:15:12.437Z,6.40
2019-04-30T02:17:43.680Z,6.30
2019-04-30T02:20:14.069Z,6.10
2019-04-30T02:22:44.184Z,6.00
2019-04-30T02:25:14.348Z,5.90
2019-04-30T02:27:45.751Z,5.80
2019-04-30T02:30:15.882Z,5.80
2019-04-30T02:32:46.007Z,5.70
2019-04-30T02:35:29.862Z,5.80
2019-04-30T02:38:12.800Z,5.70
2019-04-30T02:40:43.328Z,5.70
2019-04-30T02:43:14.728Z,5.60
2019-04-30T02:45:49.612Z,5.60
2019-04-30T02:48:22.505Z,5.60
2019-04-30T02:50:53.883Z,5.60
2019-04-30T02:54:00.525Z,5.60
2019-04-30T02:56:31.438Z,5.70
2019-04-30T02:59:03.706Z,5.60
2019-04-30T03:01:33.744Z,5.50
2019-04-30T03:04:03.970Z,5.50
2019-04-30T03:06:35.212Z,5.50
2019-04-30T03:09:06.665Z,5.50
2019-04-30T03:11:40.048Z,5.50
2019-04-30T03:14:10.262Z,5.40
2019-04-30T03:17:00.116Z,5.40
2019-04-30T03:19:45.453Z,5.50
2019-04-30T03:22:20.348Z,5.50
2019-04-30T03:24:50.339Z,5.50
2019-04-30T03:27:24.605Z,5.50
2019-04-30T03:29:53.497Z,5.50
2019-04-30T03:32:23.684Z,5.40
2019-04-30T03:34:53.844Z,5.40
2019-04-30T03:37:25.038Z,5.30
2019-04-30T03:39:55.203Z,5.20
2019-04-30T03:42:25.470Z,5.10
2019-04-30T03:44:55.611Z,5.10
2019-04-30T03:47:26.029Z,5.00
2019-04-30T03:49:56.136Z,5.00
2019-04-30T03:52:29.193Z,4.90
2019-04-30T03:55:02.634Z,4.70
2019-04-30T03:57:31.121Z,5.10
2019-04-30T04:00:01.249Z,5.30
2019-04-30T04:02:43.553Z,5.20
2019-04-30T04:05:32.904Z,5.10
2019-04-30T04:08:25.399Z,5.00
2019-04-30T04:11:14.421Z,4.90
2019-04-30T04:13:44.631Z,4.90
2019-04-30T04:16:14.804Z,4.90
2019-04-30T04:18:45.029Z,4.80
2019-04-30T04:21:16.844Z,4.80
2019-04-30T04:23:49.235Z,4.70
2019-04-30T04:26:20.251Z,4.70
2019-04-30T04:28:51.203Z,4.60
2019-04-30T04:31:22.055Z,4.60
2019-04-30T04:33:59.810Z,4.60
2019-04-30T04:36:30.179Z,4.60
2019-04-30T04:39:00.476Z,4.60
2019-04-30T04:41:30.852Z,4.40
2019-04-30T04:44:01.330Z,4.60
2019-04-30T04:46:31.759Z,4.50
2019-04-30T04:49:02.081Z,4.40
2019-04-30T04:51:38.686Z,4.50
2019-04-30T04:54:04.564Z,4.50
2019-04-30T04:56:35.783Z,4.40
2019-04-30T04:59:06.104Z,4.50
2019-04-30T05:01:38.645Z,4.50
2019-04-30T05:04:11.507Z,4.60
2019-04-30T05:06:40.497Z,4.60
2019-04-30T05:09:10.867Z,4.50
2019-04-30T05:11:41.319Z,4.50
2019-04-30T05:14:11.668Z,4.60
2019-04-30T05:16:42.065Z,4.60
2019-04-30T05:19:13.599Z,4.60
2019-04-30T05:21:44.845Z,4.70
2019-04-30T05:24:15.291Z,4.80
2019-04-30T05:26:48.600Z,4.80
2019-04-30T05:29:19.002Z,5.00
2019-04-30T05:31:49.472Z,5.10
2019-04-30T05:34:19.884Z,5.20
2019-04-30T05:36:50.795Z,5.20
2019-04-30T05:39:21.732Z,5.40
2019-04-30T05:41:52.737Z,5.50
2019-04-30T05:44:23.294Z,5.50
2019-04-30T05:46:53.803Z,5.70
2019-04-30T05:49:24.296Z,5.80
2019-04-30T05:51:55.893Z,6.00
2019-04-30T05:54:26.231Z,6.10
2019-04-30T05:56:56.705Z,6.40
2019-04-30T05:59:28.960Z,6.50
2019-04-30T06:01:59.705Z,6.70
2019-04-30T06:04:31.076Z,6.80
2019-04-30T06:07:01.946Z,7.10
2019-04-30T06:09:42.106Z,7.30
2019-04-30T06:12:35.589Z,7.50
2019-04-30T06:15:25.150Z,7.70
2019-04-30T06:18:00.291Z,7.70
2019-04-30T06:20:28.821Z,7.90
2019-04-30T06:22:59.945Z,8.00
2019-04-30T06:25:40.841Z,8.00
2019-04-30T06:28:02.794Z,8.10
2019-04-30T06:30:33.777Z,8.30
2019-04-30T06:33:22.692Z,8.40
2019-04-30T06:35:53.649Z,8.40
2019-04-30T06:38:25.208Z,8.50
2019-04-30T06:40:55.648Z,8.60
2019-04-30T06:43:26.319Z,8.80
2019-04-30T06:45:58.990Z,8.90
2019-04-30T06:48:31.706Z,9.10
2019-04-30T06:51:02.720Z,9.30
2019-04-30T06:53:32.929Z,9.20
2019-04-30T06:56:03.352Z,9.30
2019-04-30T06:58:33.585Z,9.60
2019-04-30T07:01:03.864Z,9.70
2019-04-30T07:03:34.210Z,9.90
2019-04-30T07:06:04.741Z,9.80
2019-04-30T07:08:55.745Z,9.70
2019-04-30T07:11:36.867Z,9.80
2019-04-30T07:14:06.996Z,10.00
2019-04-30T07:16:37.077Z,10.20
2019-04-30T07:19:09.085Z,10.40
2019-04-30T07:21:42.776Z,10.60
2019-04-30T07:24:11.398Z,10.60
2019-04-30T07:26:41.637Z,10.40
2019-04-30T07:29:13.558Z,10.30
2019-04-30T07:31:44.378Z,10.30
2019-04-30T07:34:37.057Z,10.30
2019-04-30T07:37:15.373Z,10.50
2019-04-30T07:39:39.062Z,10.60
2019-04-30T07:42:10.059Z,10.60
2019-04-30T07:44:40.857Z,10.70
2019-04-30T07:47:11.123Z,10.50
2019-04-30T07:49:49.969Z,10.80
2019-04-30T07:52:13.793Z,11.00
2019-04-30T07:54:44.297Z,11.40
2019-04-30T07:57:14.387Z,11.20
2019-04-30T07:59:44.688Z,11.20
2019-04-30T08:02:15.029Z,11.20
2019-04-30T08:04:53.943Z,11.30
2019-04-30T08:07:43.497Z,11.20
2019-04-30T08:10:14.988Z,11.30
2019-04-30T08:12:45.709Z,11.50
2019-04-30T08:15:16.322Z,12.00
2019-04-30T08:18:00.068Z,12.40
2019-04-30T08:20:19.656Z,12.70
2019-04-30T08:22:51.015Z,12.60
2019-04-30T08:25:22.090Z,12.60
2019-04-30T08:27:52.480Z,12.30
2019-04-30T08:30:26.902Z,12.40
2019-04-30T08:32:56.260Z,12.20
2019-04-30T08:35:29.509Z,12.50
2019-04-30T08:37:59.984Z,12.50
2019-04-30T08:40:30.256Z,13.10
2019-04-30T08:43:00.608Z,13.10
2019-04-30T08:45:34.568Z,12.80
2019-04-30T08:48:03.729Z,12.90
2019-04-30T08:50:34.281Z,13.00
2019-04-30T08:53:04.685Z,13.10
2019-04-30T08:55:35.213Z,13.00
2019-04-30T08:58:09.863Z,13.00
2019-04-30T09:00:38.538Z,13.50
2019-04-30T09:03:09.401Z,13.60
2019-04-30T09:06:02.569Z,14.00
2019-04-30T09:08:35.181Z,13.90
2019-04-30T09:11:05.448Z,13.90
2019-04-30T09:13:36.105Z,14.10
2019-04-30T09:16:06.355Z,13.80
2019-04-30T09:18:36.496Z,13.80
2019-04-30T09:21:08.862Z,14.10
2019-04-30T09:23:47.528Z,14.60
2019-04-30T09:26:11.225Z,14.80
2019-04-30T09:28:41.392Z,14.50
2019-04-30T09:31:11.337Z,14.80
2019-04-30T09:33:41.237Z,14.80
2019-04-30T09:36:11.124Z,15.10
2019-04-30T09:38:41.800Z,14.80
2019-04-30T09:41:11.692Z,14.50
2019-04-30T09:43:41.893Z,14.60
2019-04-30T09:46:19.127Z,14.10
2019-04-30T09:48:44.900Z,14.10
2019-04-30T09:51:15.715Z,13.70
2019-04-30T09:53:58.259Z,13.80
2019-04-30T09:56:19.349Z,14.10
2019-04-30T09:58:49.638Z,14.80
2019-04-30T10:01:22.085Z,14.40
2019-04-30T10:03:52.737Z,14.60
2019-04-30T10:06:36.054Z,15.10
2019-04-30T10:08:56.444Z,15.30
2019-04-30T10:11:44.093Z,15.30
2019-04-30T10:14:14.409Z,15.60
2019-04-30T10:16:50.461Z,15.30
2019-04-30T10:19:20.896Z,14.80
2019-04-30T10:21:51.253Z,14.60
2019-04-30T10:24:21.635Z,14.60
2019-04-30T10:26:52.329Z,14.60
2019-04-30T10:29:23.255Z,14.60
2019-04-30T10:31:54.211Z,14.60
2019-04-30T10:34:24.982Z,14.60
2019-04-30T10:36:55.864Z,14.80
2019-04-30T10:39:29.698Z,15.70
2019-04-30T10:41:59.655Z,16.20
2019-04-30T10:44:30.273Z,16.10
2019-04-30T10:47:00.680Z,16.00
2019-04-30T10:49:31.050Z,15.40
2019-04-30T10:52:01.964Z,15.60
2019-04-30T10:54:33.497Z,16.10
2019-04-30T10:57:08.565Z,16.20
2019-04-30T10:59:38.803Z,16.40
2019-04-30T11:02:10.816Z,16.80
2019-04-30T11:04:41.175Z,16.90
2019-04-30T11:07:11.628Z,16.70
2019-04-30T11:09:42.083Z,17.00
2019-04-30T11:12:12.699Z,17.70
2019-04-30T11:14:43.488Z,17.70
2019-04-30T11:17:14.094Z,17.30
2019-04-30T11:19:45.066Z,16.70
2019-04-30T11:22:15.683Z,16.80
2019-04-30T11:24:56.593Z,17.10
2019-04-30T11:27:20.273Z,17.00
2019-04-30T11:29:49.765Z,17.80
2019-04-30T11:32:23.057Z,18.00
2019-04-30T11:34:53.641Z,18.20
2019-04-30T11:37:23.940Z,18.90
2019-04-30T11:39:55.004Z,19.00
2019-04-30T11:42:25.346Z,19.00
2019-04-30T11:44:55.677Z,18.40
2019-04-30T11:47:30.139Z,17.90
2019-04-30T11:50:00.540Z,17.70
2019-04-30T11:52:30.820Z,17.80
2019-04-30T11:55:01.066Z,17.30
2019-04-30T11:57:31.247Z,17.10
2019-04-30T12:00:01.594Z,17.10
2019-04-30T12:02:52.992Z,17.00
2019-04-30T12:05:24.076Z,16.50
2019-04-30T12:08:26.645Z,16.20
2019-04-30T12:11:15.249Z,16.40
2019-04-30T12:13:44.559Z,16.80
2019-04-30T12:16:14.635Z,16.60
2019-04-30T12:18:45.357Z,16.60
2019-04-30T12:21:15.533Z,16.60
2019-04-30T12:23:45.949Z,16.50
2019-04-30T12:26:16.125Z,17.20
2019-04-30T12:28:46.407Z,17.60
2019-04-30T12:31:18.609Z,17.30
2019-04-30T12:33:48.942Z,17.60
2019-04-30T12:36:19.471Z,17.20
2019-04-30T12:38:49.695Z,17.60
2019-04-30T12:41:20.020Z,17.80
2019-04-30T12:43:50.320Z,18.40
2019-04-30T12:46:21.291Z,18.10
2019-04-30T12:49:07.428Z,17.70
2019-04-30T12:51:46.112Z,17.40
2019-04-30T12:54:26.977Z,17.50
2019-04-30T12:57:11.184Z,18.50
2019-04-30T12:59:41.752Z,19.30
2019-04-30T13:02:12.481Z,19.80
2019-04-30T13:04:42.860Z,20.30
2019-04-30T13:07:13.871Z,21.00
2019-04-30T13:09:44.792Z,21.60
2019-04-30T13:12:16.572Z,21.00
2019-04-30T13:14:52.477Z,19.90
2019-04-30T13:17:19.142Z,19.60
2019-04-30T13:19:50.080Z,19.30
2019-04-30T13:22:20.504Z,20.20
2019-04-30T13:24:51.038Z,19.10
2019-04-30T13:27:22.578Z,18.30
2019-04-30T13:30:02.056Z,17.80
2019-04-30T13:32:36.157Z,17.80
2019-04-30T13:35:06.772Z,18.20
2019-04-30T13:37:43.341Z,20.40
2019-04-30T13:40:24.476Z,19.50
2019-04-30T13:42:55.356Z,20.00
2019-04-30T13:45:25.791Z,20.60
2019-04-30T13:47:56.261Z,20.90
2019-04-30T13:50:29.023Z,21.30
2019-04-30T13:52:59.836Z,21.00
2019-04-30T13:55:42.479Z,22.40
2019-04-30T13:58:02.192Z,22.00
2019-04-30T14:00:32.649Z,21.30
2019-04-30T14:03:20.105Z,21.70
2019-04-30T14:05:51.593Z,21.90
2019-04-30T14:08:28.989Z,19.80
2019-04-30T14:11:19.060Z,20.60
2019-04-30T14:13:49.243Z,21.70
2019-04-30T14:16:19.720Z,22.60
2019-04-30T14:18:49.624Z,22.80
2019-04-30T14:21:32.235Z,23.10
2019-04-30T14:23:51.104Z,22.70
2019-04-30T14:26:21.135Z,22.80
2019-04-30T14:28:51.100Z,23.10
2019-04-30T14:31:21.060Z,23.40
2019-04-30T14:33:50.972Z,23.10
2019-04-30T14:36:20.953Z,22.30
2019-04-30T14:38:50.864Z,22.10
2019-04-30T14:41:22.278Z,21.90
2019-04-30T14:43:58.723Z,22.20
2019-04-30T14:46:45.186Z,22.40
2019-04-30T14:49:37.061Z,22.90
2019-04-30T14:52:09.181Z,22.20
2019-04-30T14:54:58.839Z,22.40
2019-04-30T14:58:00.073Z,22.70
2019-04-30T15:00:59.347Z,22.60
2019-04-30T15:03:29.570Z,21.90
2019-04-30T15:05:59.867Z,22.60
2019-04-30T15:08:30.122Z,23.50
2019-04-30T15:11:00.168Z,23.00
2019-04-30T15:13:30.331Z,22.60
2019-04-30T15:16:00.336Z,23.40
2019-04-30T15:18:30.924Z,23.40
2019-04-30T15:21:00.984Z,23.30
2019-04-30T15:23:57.991Z,22.60
2019-04-30T15:26:24.521Z,22.50
2019-04-30T15:28:52.336Z,23.80
2019-04-30T15:31:22.317Z,23.90
2019-04-30T15:34:02.911Z,23.90
2019-04-30T15:36:30.496Z,23.10
2019-04-30T15:39:30.666Z,22.60
2019-04-30T15:42:00.283Z,22.90
2019-04-30T15:44:30.430Z,22.20
2019-04-30T15:47:01.106Z,21.40
2019-04-30T15:49:34.041Z,21.30
2019-04-30T15:52:04.127Z,20.30
2019-04-30T15:54:34.254Z,20.60
2019-04-30T15:57:04.475Z,20.20
2019-04-30T15:59:42.107Z,19.80
2019-04-30T16:02:24.108Z,19.60
2019-04-30T16:05:15.973Z,19.30
2019-04-30T16:08:08.878Z,18.90
2019-04-30T16:11:08.267Z,18.50
2019-04-30T16:13:58.484Z,18.20
2019-04-30T16:16:32.412Z,18.20
2019-04-30T16:19:03.368Z,18.00
2019-04-30T16:21:34.054Z,18.00
2019-04-30T16:24:04.574Z,17.70
2019-04-30T16:26:46.375Z,17.80
2019-04-30T16:29:06.958Z,17.60
2019-04-30T16:31:39.154Z,17.60
2019-04-30T16:34:09.799Z,17.30
2019-04-30T16:36:39.660Z,17.30
2019-04-30T16:39:10.193Z,17.20
2019-04-30T16:41:40.815Z,17.20
2019-04-30T16:44:11.080Z,17.00
2019-04-30T16:46:41.096Z,16.90
2019-04-30T16:49:13.293Z,16.90
2019-04-30T16:51:42.729Z,16.90
2019-04-30T16:54:12.624Z,16.70
2019-04-30T16:56:42.763Z,16.60
2019-04-30T16:59:14.765Z,16.50
2019-04-30T17:01:56.906Z,16.60
2019-04-30T17:04:24.574Z,16.80
2019-04-30T17:07:03.112Z,16.80
2019-04-30T17:09:44.613Z,16.80
2019-04-30T17:12:45.525Z,16.60
2019-04-30T17:15:29.211Z,16.60
2019-04-30T17:17:59.189Z,16.50
2019-04-30T17:20:29.081Z,16.60
2019-04-30T17:22:59.591Z,16.60
2019-04-30T17:25:29.710Z,16.50
2019-04-30T17:28:01.505Z,16.50
2019-04-30T17:30:31.200Z,16.40
2019-04-30T17:33:01.104Z,16.40
2019-04-30T17:35:31.163Z,16.40
2019-04-30T17:38:01.456Z,16.30
2019-04-30T17:40:32.313Z,16.40
2019-04-30T17:43:02.203Z,16.30
2019-04-30T17:45:32.113Z,16.30
2019-04-30T17:48:02.416Z,16.20
2019-04-30T17:50:32.563Z,16.30
2019-04-30T17:53:03.367Z,16.20
2019-04-30T17:55:33.644Z,16.20
2019-04-30T17:58:04.837Z,16.10
2019-04-30T18:00:55.776Z,16.10
2019-04-30T18:03:25.767Z,16.10
2019-04-30T18:05:56.204Z,16.00
2019-04-30T18:08:26.340Z,15.90
2019-04-30T18:10:56.536Z,15.80
2019-04-30T18:13:26.565Z,15.70
2019-04-30T18:16:00.227Z,15.50
2019-04-30T18:18:37.798Z,15.40
2019-04-30T18:21:26.658Z,15.30
2019-04-30T18:24:19.531Z,15.20
2019-04-30T18:26:54.816Z,15.20
2019-04-30T18:29:25.164Z,15.10
2019-04-30T18:31:55.265Z,15.00
2019-04-30T18:34:25.243Z,15.00
2019-04-30T18:36:55.268Z,15.00
2019-04-30T18:39:25.263Z,14.80
2019-04-30T18:41:55.345Z,14.70
2019-04-30T18:44:26.871Z,14.60
2019-04-30T18:46:58.942Z,14.50
2019-04-30T18:49:28.773Z,14.40
2019-04-30T18:51:59.119Z,14.30
2019-04-30T18:54:29.122Z,14.30
2019-04-30T18:56:59.215Z,14.30
2019-04-30T18:59:32.522Z,14.30
2019-04-30T19:02:01.345Z,14.30
2019-04-30T19:04:31.497Z,14.40
2019-04-30T19:07:08.491Z,14.40
2019-04-30T19:09:50.797Z,14.40
2019-04-30T19:12:42.672Z,14.30
2019-04-30T19:16:11.408Z,14.20
2019-04-30T19:18:31.232Z,14.20
2019-04-30T19:21:01.380Z,14.10
2019-04-30T19:23:32.220Z,14.10
2019-04-30T19:26:02.332Z,14.20
2019-04-30T19:28:32.368Z,14.30
2019-04-30T19:31:02.562Z,14.30
2019-04-30T19:33:33.064Z,14.30
2019-04-30T19:36:04.245Z,14.20
2019-04-30T19:38:34.500Z,14.30
2019-04-30T19:41:04.480Z,14.30
2019-04-30T19:43:34.372Z,14.20
2019-04-30T19:46:04.799Z,14.10
2019-04-30T19:48:34.965Z,14.10
2019-04-30T19:51:05.113Z,14.00
2019-04-30T19:53:35.020Z,14.00
2019-04-30T19:56:05.073Z,14.00
2019-04-30T19:58:52.352Z,14.00
2019-04-30T20:01:07.008Z,13.90
2019-04-30T20:03:37.032Z,13.70
2019-04-30T20:06:08.904Z,13.70
2019-04-30T20:08:40.047Z,13.80
2019-04-30T20:11:10.426Z,13.70
2019-04-30T20:13:41.330Z,13.60
2019-04-30T20:16:19.607Z,13.60
2019-04-30T20:18:49.870Z,13.50
2019-04-30T20:21:28.333Z,13.40
2019-04-30T20:23:53.481Z,13.40
2019-04-30T20:26:23.316Z,13.20
2019-04-30T20:28:54.948Z,13.20
2019-04-30T20:31:24.829Z,13.20
2019-04-30T20:33:54.879Z,13.10
2019-04-30T20:36:25.328Z,13.20
2019-04-30T20:39:16.036Z,13.10
2019-04-30T20:41:46.565Z,12.90
2019-04-30T20:44:19.001Z,12.70
2019-04-30T20:46:49.167Z,12.60
2019-04-30T20:49:19.337Z,12.60
2019-04-30T20:51:55.191Z,12.50
2019-04-30T20:54:20.949Z,12.40
2019-04-30T20:56:51.024Z,12.30
2019-04-30T20:59:21.017Z,12.20
2019-04-30T21:01:51.283Z,12.00
2019-04-30T21:04:21.180Z,12.00
2019-04-30T21:06:51.114Z,12.00
2019-04-30T21:09:21.051Z,11.90
2019-04-30T21:11:51.989Z,11.90
2019-04-30T21:14:23.390Z,11.90
2019-04-30T21:16:54.173Z,11.90
2019-04-30T21:19:24.092Z,11.80
2019-04-30T21:21:53.936Z,11.80
2019-04-30T21:24:24.307Z,11.70
2019-04-30T21:26:54.245Z,11.70
2019-04-30T21:29:24.157Z,11.60
2019-04-30T21:32:11.868Z,11.50
2019-04-30T21:34:56.821Z,11.40
2019-04-30T21:37:26.712Z,11.40
2019-04-30T21:39:58.187Z,11.40
2019-04-30T21:42:28.240Z,11.30
2019-04-30T21:44:58.135Z,11.20
2019-04-30T21:47:28.051Z,11.30
2019-04-30T21:49:57.924Z,11.20
2019-04-30T21:52:27.833Z,11.20
2019-04-30T21:54:59.522Z,11.20
2019-04-30T21:57:29.244Z,11.20
2019-04-30T21:59:59.630Z,11.20
2019-04-30T22:02:29.817Z,11.10
2019-04-30T22:05:00.115Z,11.10
2019-04-30T22:07:30.084Z,11.10
2019-04-30T22:10:00.843Z,11.10
2019-04-30T22:12:31.138Z,11.10
2019-04-30T22:15:01.329Z,11.00
2019-04-30T22:17:31.859Z,10.90
2019-04-30T22:20:02.081Z,10.80
2019-04-30T22:22:32.302Z,10.70
2019-04-30T22:25:02.748Z,10.80
2019-04-30T22:27:33.054Z,10.80
2019-04-30T22:30:03.252Z,10.90
2019-04-30T22:32:33.480Z,10.80
2019-04-30T22:35:29.835Z,10.70
2019-04-30T22:38:01.700Z,10.70
2019-04-30T22:40:31.737Z,10.70
2019-04-30T22:43:01.840Z,10.80
2019-04-30T22:45:38.307Z,10.90
2019-04-30T22:48:08.917Z,10.90
2019-04-30T22:50:38.881Z,10.80
2019-04-30T22:53:11.152Z,10.90
2019-04-30T22:55:41.048Z,10.90
2019-04-30T22:58:10.979Z,10.90
2019-04-30T23:00:43.644Z,10.90
2019-04-30T23:03:26.074Z,10.60
2019-04-30T23:05:56.029Z,10.50
2019-04-30T23:08:25.946Z,10.50
2019-04-30T23:11:14.754Z,10.40
2019-04-30T23:13:44.842Z,10.40
2019-04-30T23:16:15.127Z,10.50
2019-04-30T23:18:45.709Z,10.50
2019-04-30T23:21:18.823Z,10.50
2019-04-30T23:23:49.023Z,10.30
2019-04-30T23:26:22.011Z,10.40
2019-04-30T23:28:52.419Z,10.30
2019-04-30T23:31:22.313Z,10.10
2019-04-30T23:33:52.340Z,10.20
2019-04-30T23:36:22.224Z,10.20
2019-04-30T23:38:52.235Z,10.10
2019-04-30T23:41:22.233Z,10.10
2019-04-30T23:43:54.847Z,10.20
2019-04-30T23:46:24.629Z,10.10
2019-04-30T23:48:54.552Z,10.10
2019-04-30T23:51:24.475Z,10.10
2019-04-30T23:53:54.467Z,10.10
2019-04-30T23:56:24.348Z,10.00
2019-04-30T23:58:54.332Z,10.00
